sensor_id;sensor_type;location;lat;lon;timestamp;temperature;humidity
3794;DHT22;1912;51.358;12.282;2024-02-26T04:53:02;2.30;1.00
3794;DHT22;1912;51.358;12.282;2024-02-26T04:55:27;2.30;1.00
3794;DHT22;1912;51.358;12.282;2024-02-26T04:57:53;2.30;1.00
3794;DHT22;1912;51.358;12.282;2024-02-26T05:00:19;2.30;1.00
3794;DHT22;1912;51.358;12.282;2024-02-26T05:02:45;2.30;1.00
3794;DHT22;1912;51.358;12.282;2024-02-26T05:05:11;2.40;1.00
3794;DHT22;1912;51.358;12.282;2024-02-26T05:07:41;2.30;1.00
3794;DHT22;1912;51.358;12.282;2024-02-26T05:10:08;2.40;1.00
3794;DHT22;1912;51.358;12.282;2024-02-26T05:12:34;2.40;1.00
3794;DHT22;1912;51.358;12.282;2024-02-26T05:15:01;2.40;1.00
3794;DHT22;1912;51.358;12.282;2024-02-26T05:17:28;2.40;1.00
3794;DHT22;1912;51.358;12.282;2024-02-26T05:19:53;2.40;1.00
3794;DHT22;1912;51.358;12.282;2024-02-26T05:22:19;2.40;1.00
3794;DHT22;1912;51.358;12.282;2024-02-26T05:24:45;2.40;1.00
3794;DHT22;1912;51.358;12.282;2024-02-26T05:27:10;2.40;1.00
3794;DHT22;1912;51.358;12.282;2024-02-26T05:29:37;2.40;1.00
3794;DHT22;1912;51.358;12.282;2024-02-26T05:32:04;2.40;1.00
3794;DHT22;1912;51.358;12.282;2024-02-26T05:34:32;2.40;1.00
3794;DHT22;1912;51.358;12.282;2024-02-26T05:36:58;2.40;1.00
3794;DHT22;1912;51.358;12.282;2024-02-26T05:39:24;2.40;1.00
3794;DHT22;1912;51.358;12.282;2024-02-26T05:41:50;2.40;1.00
3794;DHT22;1912;51.358;12.282;2024-02-26T05:44:15;2.40;1.00
3794;DHT22;1912;51.358;12.282;2024-02-26T05:46:42;2.40;1.00
3794;DHT22;1912;51.358;12.282;2024-02-26T05:49:07;2.40;1.00
3794;DHT22;1912;51.358;12.282;2024-02-26T05:51:33;2.40;1.00
3794;DHT22;1912;51.358;12.282;2024-02-26T05:53:58;2.40;1.00
3794;DHT22;1912;51.358;12.282;2024-02-26T05:56:24;2.40;1.00
3794;DHT22;1912;51.358;12.282;2024-02-26T05:58:50;2.30;1.00
3794;DHT22;1912;51.358;12.282;2024-02-26T06:01:17;2.40;1.00
3794;DHT22;1912;51.358;12.282;2024-02-26T06:03:43;2.30;1.00
3794;DHT22;1912;51.358;12.282;2024-02-26T06:06:10;2.30;1.00
3794;DHT22;1912;51.358;12.282;2024-02-26T06:08:37;2.30;1.00
3794;DHT22;1912;51.358;12.282;2024-02-26T06:11:06;2.40;1.00
3794;DHT22;1912;51.358;12.282;2024-02-26T06:13:32;2.40;1.00
3794;DHT22;1912;51.358;12.282;2024-02-26T06:15:58;2.40;1.00
3794;DHT22;1912;51.358;12.282;2024-02-26T06:18:24;2.40;1.00
3794;DHT22;1912;51.358;12.282;2024-02-26T06:20:50;2.50;1.00
3794;DHT22;1912;51.358;12.282;2024-02-26T06:23:16;2.50;1.00
3794;DHT22;1912;51.358;12.282;2024-02-26T06:25:41;2.50;1.00
3794;DHT22;1912;51.358;12.282;2024-02-26T06:28:08;2.50;1.00
3794;DHT22;1912;51.358;12.282;2024-02-26T06:30:34;2.50;1.00
3794;DHT22;1912;51.358;12.282;2024-02-26T06:33:00;2.50;1.00
3794;DHT22;1912;51.358;12.282;2024-02-26T06:35:26;2.50;1.00
3794;DHT22;1912;51.358;12.282;2024-02-26T06:37:52;2.50;1.00
3794;DHT22;1912;51.358;12.282;2024-02-26T06:40:19;2.50;1.00
3794;DHT22;1912;51.358;12.282;2024-02-26T06:42:45;2.60;1.00
3794;DHT22;1912;51.358;12.282;2024-02-26T06:45:10;2.60;1.00
3794;DHT22;1912;51.358;12.282;2024-02-26T06:47:36;2.70;1.00
3794;DHT22;1912;51.358;12.282;2024-02-26T06:50:01;2.70;1.00
3794;DHT22;1912;51.358;12.282;2024-02-26T06:52:27;2.80;1.00
3794;DHT22;1912;51.358;12.282;2024-02-26T06:54:53;2.80;1.00
3794;DHT22;1912;51.358;12.282;2024-02-26T06:57:21;2.90;1.00
3794;DHT22;1912;51.358;12.282;2024-02-26T06:59:47;3.00;1.00
3794;DHT22;1912;51.358;12.282;2024-02-26T07:02:16;3.20;1.00
3794;DHT22;1912;51.358;12.282;2024-02-26T07:04:42;3.40;1.00
3794;DHT22;1912;51.358;12.282;2024-02-26T07:07:08;3.50;1.00
3794;DHT22;1912;51.358;12.282;2024-02-26T07:09:34;3.60;1.00
3794;DHT22;1912;51.358;12.282;2024-02-26T07:11:59;3.70;1.00
3794;DHT22;1912;51.358;12.282;2024-02-26T07:14:25;3.80;1.00
3794;DHT22;1912;51.358;12.282;2024-02-26T07:16:51;3.90;1.00
3794;DHT22;1912;51.358;12.282;2024-02-26T07:19:16;4.00;1.00
3794;DHT22;1912;51.358;12.282;2024-02-26T07:21:42;4.10;1.00
3794;DHT22;1912;51.358;12.282;2024-02-26T07:24:08;4.20;1.00
3794;DHT22;1912;51.358;12.282;2024-02-26T07:26:34;4.40;1.00
3794;DHT22;1912;51.358;12.282;2024-02-26T07:28:59;4.60;1.00
3794;DHT22;1912;51.358;12.282;2024-02-26T07:31:25;4.60;1.00
3794;DHT22;1912;51.358;12.282;2024-02-26T07:33:51;4.70;1.00
3794;DHT22;1912;51.358;12.282;2024-02-26T07:36:17;4.90;1.00
3794;DHT22;1912;51.358;12.282;2024-02-26T07:38:43;5.00;1.00
3794;DHT22;1912;51.358;12.282;2024-02-26T07:41:09;5.10;1.00
3794;DHT22;1912;51.358;12.282;2024-02-26T07:43:34;5.20;1.00
3794;DHT22;1912;51.358;12.282;2024-02-26T07:46:00;5.30;1.00
3794;DHT22;1912;51.358;12.282;2024-02-26T07:48:26;5.50;1.00
3794;DHT22;1912;51.358;12.282;2024-02-26T07:50:52;5.70;1.00
3794;DHT22;1912;51.358;12.282;2024-02-26T07:53:17;5.90;1.00
3794;DHT22;1912;51.358;12.282;2024-02-26T07:55:43;6.10;1.00
3794;DHT22;1912;51.358;12.282;2024-02-26T07:58:09;6.00;1.00
3794;DHT22;1912;51.358;12.282;2024-02-26T08:00:34;6.20;1.00
3794;DHT22;1912;51.358;12.282;2024-02-26T08:03:00;6.40;1.00
3794;DHT22;1912;51.358;12.282;2024-02-26T08:05:26;6.60;1.00
3794;DHT22;1912;51.358;12.282;2024-02-26T08:07:51;6.70;1.00
3794;DHT22;1912;51.358;12.282;2024-02-26T08:10:17;6.70;1.00
3794;DHT22;1912;51.358;12.282;2024-02-26T08:12:43;6.70;1.00
3794;DHT22;1912;51.358;12.282;2024-02-26T08:15:10;6.80;1.00
3794;DHT22;1912;51.358;12.282;2024-02-26T08:17:36;6.80;1.00
3794;DHT22;1912;51.358;12.282;2024-02-26T08:20:02;7.00;1.00
3794;DHT22;1912;51.358;12.282;2024-02-26T08:22:28;7.20;1.00
3794;DHT22;1912;51.358;12.282;2024-02-26T08:24:54;7.30;1.00
3794;DHT22;1912;51.358;12.282;2024-02-26T08:27:19;7.20;1.00
3794;DHT22;1912;51.358;12.282;2024-02-26T08:29:45;7.20;1.00
3794;DHT22;1912;51.358;12.282;2024-02-26T08:32:11;7.30;1.00
3794;DHT22;1912;51.358;12.282;2024-02-26T08:34:37;7.30;1.00
3794;DHT22;1912;51.358;12.282;2024-02-26T08:37:02;7.40;1.00
3794;DHT22;1912;51.358;12.282;2024-02-26T08:39:28;7.50;1.00
3794;DHT22;1912;51.358;12.282;2024-02-26T08:41:54;7.70;1.00
3794;DHT22;1912;51.358;12.282;2024-02-26T08:44:19;7.90;1.00
3794;DHT22;1912;51.358;12.282;2024-02-26T08:46:45;8.00;1.00
3794;DHT22;1912;51.358;12.282;2024-02-26T08:49:11;8.20;1.00
3794;DHT22;1912;51.358;12.282;2024-02-26T08:51:42;8.50;1.00
3794;DHT22;1912;51.358;12.282;2024-02-26T08:54:08;8.90;1.00
3794;DHT22;1912;51.358;12.282;2024-02-26T08:56:34;9.20;1.00
3794;DHT22;1912;51.358;12.282;2024-02-26T08:58:59;9.40;1.00
3794;DHT22;1912;51.358;12.282;2024-02-26T09:01:29;9.50;1.00
3794;DHT22;1912;51.358;12.282;2024-02-26T09:03:56;9.80;1.00
3794;DHT22;1912;51.358;12.282;2024-02-26T09:06:21;10.00;1.00
3794;DHT22;1912;51.358;12.282;2024-02-26T09:08:47;10.20;1.00
3794;DHT22;1912;51.358;12.282;2024-02-26T09:11:13;10.30;1.00
3794;DHT22;1912;51.358;12.282;2024-02-26T09:13:38;10.40;1.00
3794;DHT22;1912;51.358;12.282;2024-02-26T09:16:05;10.50;1.00
3794;DHT22;1912;51.358;12.282;2024-02-26T09:18:31;10.80;1.00
3794;DHT22;1912;51.358;12.282;2024-02-26T09:20:57;11.30;1.00
3794;DHT22;1912;51.358;12.282;2024-02-26T09:23:22;11.20;1.00
3794;DHT22;1912;51.358;12.282;2024-02-26T09:25:48;11.50;1.00
3794;DHT22;1912;51.358;12.282;2024-02-26T09:28:14;11.50;1.00
3794;DHT22;1912;51.358;12.282;2024-02-26T09:30:43;11.30;1.00
3794;DHT22;1912;51.358;12.282;2024-02-26T09:33:09;11.10;1.00
3794;DHT22;1912;51.358;12.282;2024-02-26T09:35:34;11.30;1.00
3794;DHT22;1912;51.358;12.282;2024-02-26T09:38:00;11.20;1.00
3794;DHT22;1912;51.358;12.282;2024-02-26T09:40:26;11.10;1.00
3794;DHT22;1912;51.358;12.282;2024-02-26T09:42:59;11.20;1.00
3794;DHT22;1912;51.358;12.282;2024-02-26T09:45:26;11.30;1.00
3794;DHT22;1912;51.358;12.282;2024-02-26T09:47:55;11.50;1.00
3794;DHT22;1912;51.358;12.282;2024-02-26T09:50:21;11.60;1.00
3794;DHT22;1912;51.358;12.282;2024-02-26T09:52:51;11.70;1.00
3794;DHT22;1912;51.358;12.282;2024-02-26T09:55:18;11.80;1.00
3794;DHT22;1912;51.358;12.282;2024-02-26T09:57:46;11.70;1.00
3794;DHT22;1912;51.358;12.282;2024-02-26T10:00:17;11.80;1.00
3794;DHT22;1912;51.358;12.282;2024-02-26T10:02:45;11.30;1.00
3794;DHT22;1912;51.358;12.282;2024-02-26T10:05:17;11.30;1.00
3794;DHT22;1912;51.358;12.282;2024-02-26T10:07:45;11.20;1.00
3794;DHT22;1912;51.358;12.282;2024-02-26T10:10:13;11.30;1.00
3794;DHT22;1912;51.358;12.282;2024-02-26T10:12:39;11.40;1.00
3794;DHT22;1912;51.358;12.282;2024-02-26T10:15:05;11.50;1.00
3794;DHT22;1912;51.358;12.282;2024-02-26T10:17:31;11.50;1.00
3794;DHT22;1912;51.358;12.282;2024-02-26T10:20:19;11.50;1.00
3794;DHT22;1912;51.358;12.282;2024-02-26T10:22:49;11.30;1.00
3794;DHT22;1912;51.358;12.282;2024-02-26T10:25:15;11.10;1.00
3794;DHT22;1912;51.358;12.282;2024-02-26T10:27:41;11.30;1.00
3794;DHT22;1912;51.358;12.282;2024-02-26T10:30:20;11.40;1.00
3794;DHT22;1912;51.358;12.282;2024-02-26T10:32:47;11.40;1.00
3794;DHT22;1912;51.358;12.282;2024-02-26T10:35:14;11.50;1.00
3794;DHT22;1912;51.358;12.282;2024-02-26T10:37:41;11.60;1.00
3794;DHT22;1912;51.358;12.282;2024-02-26T10:40:16;11.60;1.00
3794;DHT22;1912;51.358;12.282;2024-02-26T10:42:42;11.50;1.00
3794;DHT22;1912;51.358;12.282;2024-02-26T10:45:09;11.50;1.00
3794;DHT22;1912;51.358;12.282;2024-02-26T10:47:36;11.60;1.00
3794;DHT22;1912;51.358;12.282;2024-02-26T10:50:03;11.60;1.00
3794;DHT22;1912;51.358;12.282;2024-02-26T10:52:32;11.70;1.00
3794;DHT22;1912;51.358;12.282;2024-02-26T10:55:01;11.70;1.00
3794;DHT22;1912;51.358;12.282;2024-02-26T10:57:31;11.60;1.00
3794;DHT22;1912;51.358;12.282;2024-02-26T11:00:00;11.70;1.00
3794;DHT22;1912;51.358;12.282;2024-02-26T11:02:33;11.70;1.00
3794;DHT22;1912;51.358;12.282;2024-02-26T11:05:05;11.60;1.00
3794;DHT22;1912;51.358;12.282;2024-02-26T11:07:32;11.60;1.00
3794;DHT22;1912;51.358;12.282;2024-02-26T11:10:00;11.50;1.00
3794;DHT22;1912;51.358;12.282;2024-02-26T11:12:27;11.40;1.00
3794;DHT22;1912;51.358;12.282;2024-02-26T11:14:55;11.60;1.00
3794;DHT22;1912;51.358;12.282;2024-02-26T11:17:22;11.40;1.00
3794;DHT22;1912;51.358;12.282;2024-02-26T11:19:51;11.20;1.00
3794;DHT22;1912;51.358;12.282;2024-02-26T11:22:19;11.30;1.00
3794;DHT22;1912;51.358;12.282;2024-02-26T11:24:47;11.40;1.00
3794;DHT22;1912;51.358;12.282;2024-02-26T11:27:16;11.30;1.00
3794;DHT22;1912;51.358;12.282;2024-02-26T11:29:51;11.40;1.00
3794;DHT22;1912;51.358;12.282;2024-02-26T11:32:18;11.20;1.00
3794;DHT22;1912;51.358;12.282;2024-02-26T11:34:44;11.20;1.00
3794;DHT22;1912;51.358;12.282;2024-02-26T11:39:37;11.40;1.00
3794;DHT22;1912;51.358;12.282;2024-02-26T11:42:08;11.50;1.00
3794;DHT22;1912;51.358;12.282;2024-02-26T11:44:35;11.40;1.00
3794;DHT22;1912;51.358;12.282;2024-02-26T11:47:10;11.30;1.00
3794;DHT22;1912;51.358;12.282;2024-02-26T11:49:36;11.20;1.00
3794;DHT22;1912;51.358;12.282;2024-02-26T11:52:07;11.20;1.00
3794;DHT22;1912;51.358;12.282;2024-02-26T11:54:48;11.20;1.00
3794;DHT22;1912;51.358;12.282;2024-02-26T11:57:23;11.20;1.00
3794;DHT22;1912;51.358;12.282;2024-02-26T11:59:53;11.20;1.00
3794;DHT22;1912;51.358;12.282;2024-02-26T12:05:23;11.40;1.00
3794;DHT22;1912;51.358;12.282;2024-02-26T12:07:55;11.20;1.00
3794;DHT22;1912;51.358;12.282;2024-02-26T12:10:30;11.20;1.00
3794;DHT22;1912;51.358;12.282;2024-02-26T12:13:05;11.30;1.00
3794;DHT22;1912;51.358;12.282;2024-02-26T12:15:37;11.20;1.00
3794;DHT22;1912;51.358;12.282;2024-02-26T12:18:06;11.10;1.00
3794;DHT22;1912;51.358;12.282;2024-02-26T12:20:33;11.00;1.00
3794;DHT22;1912;51.358;12.282;2024-02-26T12:23:02;10.90;1.00
3794;DHT22;1912;51.358;12.282;2024-02-26T12:25:30;11.00;1.00
3794;DHT22;1912;51.358;12.282;2024-02-26T12:27:57;10.90;1.00
3794;DHT22;1912;51.358;12.282;2024-02-26T12:30:23;10.90;1.00
3794;DHT22;1912;51.358;12.282;2024-02-26T12:32:51;10.80;1.00
3794;DHT22;1912;51.358;12.282;2024-02-26T12:35:17;11.00;1.00
3794;DHT22;1912;51.358;12.282;2024-02-26T12:37:43;11.10;1.00
3794;DHT22;1912;51.358;12.282;2024-02-26T12:40:10;11.20;1.00
3794;DHT22;1912;51.358;12.282;2024-02-26T12:42:37;11.20;1.00
3794;DHT22;1912;51.358;12.282;2024-02-26T12:45:08;11.00;1.00
3794;DHT22;1912;51.358;12.282;2024-02-26T12:47:37;11.00;1.00
3794;DHT22;1912;51.358;12.282;2024-02-26T12:50:10;11.20;1.00
3794;DHT22;1912;51.358;12.282;2024-02-26T12:52:42;11.30;1.00
3794;DHT22;1912;51.358;12.282;2024-02-26T12:55:09;11.20;1.00
3794;DHT22;1912;51.358;12.282;2024-02-26T12:57:38;11.30;1.00
3794;DHT22;1912;51.358;12.282;2024-02-26T13:00:07;11.30;1.00
3794;DHT22;1912;51.358;12.282;2024-02-26T13:02:35;11.30;1.00
3794;DHT22;1912;51.358;12.282;2024-02-26T13:05:03;11.40;1.00
3794;DHT22;1912;51.358;12.282;2024-02-26T13:07:29;11.50;1.00
3794;DHT22;1912;51.358;12.282;2024-02-26T13:09:55;11.50;1.00
3794;DHT22;1912;51.358;12.282;2024-02-26T13:12:21;11.60;1.00
3794;DHT22;1912;51.358;12.282;2024-02-26T13:14:47;11.70;1.00
3794;DHT22;1912;51.358;12.282;2024-02-26T13:17:12;11.80;1.00
3794;DHT22;1912;51.358;12.282;2024-02-26T13:19:49;11.90;1.00
3794;DHT22;1912;51.358;12.282;2024-02-26T13:22:15;11.80;1.00
3794;DHT22;1912;51.358;12.282;2024-02-26T13:24:42;11.70;1.00
3794;DHT22;1912;51.358;12.282;2024-02-26T13:27:08;11.50;1.00
3794;DHT22;1912;51.358;12.282;2024-02-26T13:29:33;11.40;1.00
3794;DHT22;1912;51.358;12.282;2024-02-26T13:31:59;11.50;1.00
3794;DHT22;1912;51.358;12.282;2024-02-26T13:34:26;11.60;1.00
3794;DHT22;1912;51.358;12.282;2024-02-26T13:36:53;11.60;1.00
3794;DHT22;1912;51.358;12.282;2024-02-26T13:39:24;11.70;1.00
3794;DHT22;1912;51.358;12.282;2024-02-26T13:41:51;11.80;1.00
3794;DHT22;1912;51.358;12.282;2024-02-26T13:44:17;11.80;1.00
3794;DHT22;1912;51.358;12.282;2024-02-26T13:46:44;11.90;1.00
3794;DHT22;1912;51.358;12.282;2024-02-26T13:49:10;11.80;1.00
3794;DHT22;1912;51.358;12.282;2024-02-26T13:51:39;11.90;1.00
3794;DHT22;1912;51.358;12.282;2024-02-26T13:54:05;12.00;1.00
3794;DHT22;1912;51.358;12.282;2024-02-26T13:56:31;12.30;1.00
3794;DHT22;1912;51.358;12.282;2024-02-26T13:58:57;12.50;1.00
3794;DHT22;1912;51.358;12.282;2024-02-26T14:01:23;12.70;1.00
3794;DHT22;1912;51.358;12.282;2024-02-26T14:03:49;12.90;1.00
3794;DHT22;1912;51.358;12.282;2024-02-26T14:06:16;13.10;1.00
3794;DHT22;1912;51.358;12.282;2024-02-26T14:08:42;13.20;1.00
3794;DHT22;1912;51.358;12.282;2024-02-26T14:11:08;13.00;1.00
3794;DHT22;1912;51.358;12.282;2024-02-26T14:13:33;12.80;1.00
3794;DHT22;1912;51.358;12.282;2024-02-26T14:15:59;12.80;1.00
3794;DHT22;1912;51.358;12.282;2024-02-26T14:18:25;12.70;1.00
3794;DHT22;1912;51.358;12.282;2024-02-26T14:20:50;12.50;1.00
3794;DHT22;1912;51.358;12.282;2024-02-26T14:23:16;12.50;1.00
3794;DHT22;1912;51.358;12.282;2024-02-26T14:25:42;12.50;1.00
3794;DHT22;1912;51.358;12.282;2024-02-26T14:28:08;12.50;1.00
3794;DHT22;1912;51.358;12.282;2024-02-26T14:30:34;12.30;1.00
3794;DHT22;1912;51.358;12.282;2024-02-26T14:33:00;12.10;1.00
3794;DHT22;1912;51.358;12.282;2024-02-26T14:35:25;12.10;1.00
3794;DHT22;1912;51.358;12.282;2024-02-26T14:37:51;12.10;1.00
3794;DHT22;1912;51.358;12.282;2024-02-26T14:40:17;12.10;1.00
3794;DHT22;1912;51.358;12.282;2024-02-26T14:42:44;12.10;1.00
3794;DHT22;1912;51.358;12.282;2024-02-26T14:45:10;12.00;1.00
3794;DHT22;1912;51.358;12.282;2024-02-26T14:47:36;12.00;1.00
3794;DHT22;1912;51.358;12.282;2024-02-26T14:50:02;12.00;1.00
3794;DHT22;1912;51.358;12.282;2024-02-26T14:52:29;11.80;1.00
3794;DHT22;1912;51.358;12.282;2024-02-26T14:54:54;11.80;1.00
3794;DHT22;1912;51.358;12.282;2024-02-26T14:57:20;11.80;1.00
3794;DHT22;1912;51.358;12.282;2024-02-26T14:59:46;11.70;1.00
3794;DHT22;1912;51.358;12.282;2024-02-26T15:02:13;11.50;1.00
3794;DHT22;1912;51.358;12.282;2024-02-26T15:04:38;11.40;1.00
3794;DHT22;1912;51.358;12.282;2024-02-26T15:07:05;11.40;1.00
3794;DHT22;1912;51.358;12.282;2024-02-26T15:09:31;11.40;1.00
3794;DHT22;1912;51.358;12.282;2024-02-26T15:11:56;11.30;1.00
3794;DHT22;1912;51.358;12.282;2024-02-26T15:14:23;11.40;1.00
3794;DHT22;1912;51.358;12.282;2024-02-26T15:16:49;11.30;1.00
3794;DHT22;1912;51.358;12.282;2024-02-26T15:19:16;11.20;1.00
3794;DHT22;1912;51.358;12.282;2024-02-26T15:21:45;11.20;1.00
3794;DHT22;1912;51.358;12.282;2024-02-26T15:24:11;11.20;1.00
3794;DHT22;1912;51.358;12.282;2024-02-26T15:26:37;11.00;1.00
3794;DHT22;1912;51.358;12.282;2024-02-26T15:29:05;11.00;1.00
3794;DHT22;1912;51.358;12.282;2024-02-26T15:31:31;11.00;1.00
3794;DHT22;1912;51.358;12.282;2024-02-26T15:33:57;11.00;1.00
3794;DHT22;1912;51.358;12.282;2024-02-26T15:36:23;10.90;1.00
3794;DHT22;1912;51.358;12.282;2024-02-26T15:38:48;10.90;1.00
3794;DHT22;1912;51.358;12.282;2024-02-26T15:41:15;10.90;1.00
3794;DHT22;1912;51.358;12.282;2024-02-26T15:43:42;10.80;1.00
3794;DHT22;1912;51.358;12.282;2024-02-26T15:46:08;10.80;1.00
3794;DHT22;1912;51.358;12.282;2024-02-26T15:48:34;10.70;1.00
3794;DHT22;1912;51.358;12.282;2024-02-26T15:51:01;10.70;1.00
3794;DHT22;1912;51.358;12.282;2024-02-26T15:53:27;10.70;1.00
3794;DHT22;1912;51.358;12.282;2024-02-26T15:55:52;10.70;1.00
3794;DHT22;1912;51.358;12.282;2024-02-26T15:58:18;10.60;1.00
3794;DHT22;1912;51.358;12.282;2024-02-26T16:00:44;10.50;1.00
3794;DHT22;1912;51.358;12.282;2024-02-26T16:03:10;10.50;1.00
3794;DHT22;1912;51.358;12.282;2024-02-26T16:05:37;10.50;1.00
3794;DHT22;1912;51.358;12.282;2024-02-26T16:08:27;10.50;1.00
3794;DHT22;1912;51.358;12.282;2024-02-26T16:10:52;10.40;1.00
3794;DHT22;1912;51.358;12.282;2024-02-26T16:13:18;10.30;1.00
3794;DHT22;1912;51.358;12.282;2024-02-26T16:15:58;10.20;1.00
3794;DHT22;1912;51.358;12.282;2024-02-26T16:18:28;10.20;1.00
3794;DHT22;1912;51.358;12.282;2024-02-26T16:20:53;10.20;1.00
3794;DHT22;1912;51.358;12.282;2024-02-26T16:23:19;10.20;1.00
3794;DHT22;1912;51.358;12.282;2024-02-26T16:25:45;10.10;1.00
3794;DHT22;1912;51.358;12.282;2024-02-26T16:28:11;10.10;1.00
3794;DHT22;1912;51.358;12.282;2024-02-26T16:30:37;10.00;1.00
3794;DHT22;1912;51.358;12.282;2024-02-26T16:33:02;10.00;1.00
3794;DHT22;1912;51.358;12.282;2024-02-26T16:35:28;9.90;1.00
3794;DHT22;1912;51.358;12.282;2024-02-26T16:37:54;10.00;1.00
3794;DHT22;1912;51.358;12.282;2024-02-26T16:40:19;9.90;1.00
3794;DHT22;1912;51.358;12.282;2024-02-26T16:42:45;9.90;1.00
3794;DHT22;1912;51.358;12.282;2024-02-26T16:45:10;9.90;1.00
3794;DHT22;1912;51.358;12.282;2024-02-26T16:47:38;9.90;1.00
3794;DHT22;1912;51.358;12.282;2024-02-26T16:50:04;9.80;1.00
3794;DHT22;1912;51.358;12.282;2024-02-26T16:52:31;9.80;1.00
3794;DHT22;1912;51.358;12.282;2024-02-26T16:54:58;9.80;1.00
3794;DHT22;1912;51.358;12.282;2024-02-26T16:57:24;9.70;1.00
3794;DHT22;1912;51.358;12.282;2024-02-26T16:59:50;9.80;1.00
3794;DHT22;1912;51.358;12.282;2024-02-26T17:02:16;9.70;1.00
3794;DHT22;1912;51.358;12.282;2024-02-26T17:04:41;9.70;1.00
3794;DHT22;1912;51.358;12.282;2024-02-26T17:07:07;9.60;1.00
3794;DHT22;1912;51.358;12.282;2024-02-26T17:09:33;9.60;1.00
3794;DHT22;1912;51.358;12.282;2024-02-26T17:11:59;9.60;1.00
3794;DHT22;1912;51.358;12.282;2024-02-26T17:14:25;9.60;1.00
3794;DHT22;1912;51.358;12.282;2024-02-26T17:16:51;9.50;1.00
3794;DHT22;1912;51.358;12.282;2024-02-26T17:19:17;9.50;1.00
3794;DHT22;1912;51.358;12.282;2024-02-26T17:21:43;9.50;1.00
3794;DHT22;1912;51.358;12.282;2024-02-26T17:24:09;9.50;1.00
3794;DHT22;1912;51.358;12.282;2024-02-26T17:26:35;9.40;1.00
3794;DHT22;1912;51.358;12.282;2024-02-26T17:29:02;9.50;1.00
3794;DHT22;1912;51.358;12.282;2024-02-26T17:31:28;9.50;1.00
3794;DHT22;1912;51.358;12.282;2024-02-26T17:33:57;9.40;1.00
3794;DHT22;1912;51.358;12.282;2024-02-26T17:36:22;9.40;1.00
3794;DHT22;1912;51.358;12.282;2024-02-26T17:38:49;9.40;1.00
3794;DHT22;1912;51.358;12.282;2024-02-26T17:41:15;9.30;1.00
3794;DHT22;1912;51.358;12.282;2024-02-26T17:43:40;9.30;1.00
3794;DHT22;1912;51.358;12.282;2024-02-26T17:46:07;9.30;1.00
3794;DHT22;1912;51.358;12.282;2024-02-26T17:48:33;9.30;1.00
3794;DHT22;1912;51.358;12.282;2024-02-26T17:50:59;9.20;1.00
3794;DHT22;1912;51.358;12.282;2024-02-26T17:53:24;9.20;1.00
3794;DHT22;1912;51.358;12.282;2024-02-26T17:55:50;9.10;1.00
3794;DHT22;1912;51.358;12.282;2024-02-26T17:58:17;9.10;1.00
3794;DHT22;1912;51.358;12.282;2024-02-26T18:00:44;9.00;1.00
3794;DHT22;1912;51.358;12.282;2024-02-26T18:03:12;9.00;1.00
3794;DHT22;1912;51.358;12.282;2024-02-26T18:05:38;9.00;1.00
3794;DHT22;1912;51.358;12.282;2024-02-26T18:08:04;8.90;1.00
3794;DHT22;1912;51.358;12.282;2024-02-26T18:10:30;9.00;1.00
3794;DHT22;1912;51.358;12.282;2024-02-26T18:12:56;9.00;1.00
3794;DHT22;1912;51.358;12.282;2024-02-26T18:15:24;9.00;1.00
3794;DHT22;1912;51.358;12.282;2024-02-26T18:17:51;8.90;1.00
3794;DHT22;1912;51.358;12.282;2024-02-26T18:20:17;9.00;1.00
3794;DHT22;1912;51.358;12.282;2024-02-26T18:22:43;8.90;1.00
3794;DHT22;1912;51.358;12.282;2024-02-26T18:25:09;8.90;1.00
3794;DHT22;1912;51.358;12.282;2024-02-26T18:27:39;8.90;1.00
3794;DHT22;1912;51.358;12.282;2024-02-26T18:30:08;8.80;1.00
3794;DHT22;1912;51.358;12.282;2024-02-26T18:32:34;8.80;1.00
3794;DHT22;1912;51.358;12.282;2024-02-26T18:35:01;8.80;1.00
3794;DHT22;1912;51.358;12.282;2024-02-26T18:37:27;8.80;1.00
3794;DHT22;1912;51.358;12.282;2024-02-26T18:39:54;8.70;1.00
3794;DHT22;1912;51.358;12.282;2024-02-26T18:42:20;8.70;1.00
3794;DHT22;1912;51.358;12.282;2024-02-26T18:44:45;8.60;1.00
3794;DHT22;1912;51.358;12.282;2024-02-26T18:47:11;8.70;1.00
3794;DHT22;1912;51.358;12.282;2024-02-26T18:49:41;8.60;1.00
3794;DHT22;1912;51.358;12.282;2024-02-26T18:52:07;8.60;1.00
3794;DHT22;1912;51.358;12.282;2024-02-26T18:54:33;8.60;1.00
3794;DHT22;1912;51.358;12.282;2024-02-26T18:56:59;8.50;1.00
3794;DHT22;1912;51.358;12.282;2024-02-26T18:59:26;8.50;1.00
3794;DHT22;1912;51.358;12.282;2024-02-26T19:01:51;8.50;1.00
3794;DHT22;1912;51.358;12.282;2024-02-26T19:04:17;8.50;1.00
3794;DHT22;1912;51.358;12.282;2024-02-26T19:06:46;8.50;1.00
3794;DHT22;1912;51.358;12.282;2024-02-26T19:09:13;8.50;1.00
3794;DHT22;1912;51.358;12.282;2024-02-26T19:11:48;8.40;1.00
3794;DHT22;1912;51.358;12.282;2024-02-26T19:14:17;8.40;1.00
3794;DHT22;1912;51.358;12.282;2024-02-26T19:16:43;8.40;1.00
3794;DHT22;1912;51.358;12.282;2024-02-26T19:19:09;8.40;1.00
3794;DHT22;1912;51.358;12.282;2024-02-26T19:21:35;8.30;1.00
3794;DHT22;1912;51.358;12.282;2024-02-26T19:24:01;8.30;1.00
3794;DHT22;1912;51.358;12.282;2024-02-26T19:26:29;8.30;1.00
3794;DHT22;1912;51.358;12.282;2024-02-26T19:28:55;8.30;1.00
3794;DHT22;1912;51.358;12.282;2024-02-26T19:31:21;8.30;1.00
3794;DHT22;1912;51.358;12.282;2024-02-26T19:33:47;8.30;1.00
3794;DHT22;1912;51.358;12.282;2024-02-26T19:36:13;8.20;1.00
3794;DHT22;1912;51.358;12.282;2024-02-26T19:38:39;8.30;1.00
3794;DHT22;1912;51.358;12.282;2024-02-26T19:41:05;8.20;1.00
3794;DHT22;1912;51.358;12.282;2024-02-26T19:43:30;8.20;1.00
3794;DHT22;1912;51.358;12.282;2024-02-26T19:45:56;8.20;1.00
3794;DHT22;1912;51.358;12.282;2024-02-26T19:48:22;8.20;1.00
3794;DHT22;1912;51.358;12.282;2024-02-26T19:50:48;8.20;1.00
3794;DHT22;1912;51.358;12.282;2024-02-26T19:53:14;8.10;1.00
3794;DHT22;1912;51.358;12.282;2024-02-26T19:55:39;8.10;1.00
3794;DHT22;1912;51.358;12.282;2024-02-26T19:58:05;8.10;1.00
3794;DHT22;1912;51.358;12.282;2024-02-26T20:00:31;8.10;1.00
3794;DHT22;1912;51.358;12.282;2024-02-26T20:02:56;8.10;1.00
3794;DHT22;1912;51.358;12.282;2024-02-26T20:05:22;8.10;1.00
3794;DHT22;1912;51.358;12.282;2024-02-26T20:07:48;8.10;1.00
3794;DHT22;1912;51.358;12.282;2024-02-26T20:10:15;8.10;1.00
3794;DHT22;1912;51.358;12.282;2024-02-26T20:12:40;8.10;1.00
3794;DHT22;1912;51.358;12.282;2024-02-26T20:15:06;8.00;1.00
3794;DHT22;1912;51.358;12.282;2024-02-26T20:17:32;8.00;1.00
3794;DHT22;1912;51.358;12.282;2024-02-26T20:19:57;8.00;1.00
3794;DHT22;1912;51.358;12.282;2024-02-26T20:22:24;8.00;1.00
3794;DHT22;1912;51.358;12.282;2024-02-26T20:24:50;7.90;1.00
3794;DHT22;1912;51.358;12.282;2024-02-26T20:27:17;7.90;1.00
3794;DHT22;1912;51.358;12.282;2024-02-26T20:29:43;7.90;1.00
3794;DHT22;1912;51.358;12.282;2024-02-26T20:32:09;7.80;1.00
3794;DHT22;1912;51.358;12.282;2024-02-26T20:34:35;7.80;1.00
3794;DHT22;1912;51.358;12.282;2024-02-26T20:37:00;7.80;1.00
3794;DHT22;1912;51.358;12.282;2024-02-26T20:39:27;7.70;1.00
3794;DHT22;1912;51.358;12.282;2024-02-26T20:41:54;7.70;1.00
3794;DHT22;1912;51.358;12.282;2024-02-26T20:44:21;7.70;1.00
3794;DHT22;1912;51.358;12.282;2024-02-26T20:46:47;7.70;1.00
3794;DHT22;1912;51.358;12.282;2024-02-26T20:49:12;7.60;1.00
3794;DHT22;1912;51.358;12.282;2024-02-26T20:51:38;7.60;1.00
3794;DHT22;1912;51.358;12.282;2024-02-26T20:54:05;7.50;1.00
3794;DHT22;1912;51.358;12.282;2024-02-26T20:56:38;7.50;1.00
3794;DHT22;1912;51.358;12.282;2024-02-26T20:59:03;7.50;1.00
3794;DHT22;1912;51.358;12.282;2024-02-26T21:01:29;7.40;1.00
3794;DHT22;1912;51.358;12.282;2024-02-26T21:03:55;7.30;1.00